sensor_id;sensor_type;location;lat;lon;timestamp;pressure;altitude;pressure_sealevel;temperature;humidity
10618;BME280;5356;43.526;26.534;2023-01-10T00:02:09;98479.50;;;8.35;100.00
10618;BME280;5356;43.526;26.534;2023-01-10T00:04:34;98483.78;;;8.36;100.00
10618;BME280;5356;43.526;26.534;2023-01-10T00:07:00;98482.53;;;8.38;100.00
10618;BME280;5356;43.526;26.534;2023-01-10T00:09:25;98481.66;;;8.44;100.00
10618;BME280;5356;43.526;26.534;2023-01-10T00:11:51;98482.19;;;8.53;100.00
10618;BME280;5356;43.526;26.534;2023-01-10T00:14:35;98479.66;;;8.58;100.00
10618;BME280;5356;43.526;26.534;2023-01-10T00:17:01;98484.66;;;8.66;100.00
10618;BME280;5356;43.526;26.534;2023-01-10T00:19:27;98473.16;;;8.72;100.00
10618;BME280;5356;43.526;26.534;2023-01-10T00:21:52;98468.84;;;8.71;100.00
10618;BME280;5356;43.526;26.534;2023-01-10T00:24:19;98471.25;;;8.61;100.00
10618;BME280;5356;43.526;26.534;2023-01-10T00:26:49;98484.28;;;8.63;100.00
10618;BME280;5356;43.526;26.534;2023-01-10T00:29:25;98482.31;;;8.58;100.00
10618;BME280;5356;43.526;26.534;2023-01-10T00:31:52;98483.78;;;8.54;100.00
10618;BME280;5356;43.526;26.534;2023-01-10T00:34:18;98485.84;;;8.52;100.00
10618;BME280;5356;43.526;26.534;2023-01-10T00:36:44;98473.03;;;8.49;100.00
10618;BME280;5356;43.526;26.534;2023-01-10T00:39:11;98473.63;;;8.51;100.00
10618;BME280;5356;43.526;26.534;2023-01-10T00:41:38;98474.72;;;8.43;100.00
10618;BME280;5356;43.526;26.534;2023-01-10T00:44:23;98471.91;;;8.38;100.00
10618;BME280;5356;43.526;26.534;2023-01-10T00:46:48;98472.38;;;8.35;100.00
10618;BME280;5356;43.526;26.534;2023-01-10T00:49:14;98465.97;;;8.24;100.00
10618;BME280;5356;43.526;26.534;2023-01-10T00:51:41;98454.38;;;8.19;100.00
10618;BME280;5356;43.526;26.534;2023-01-10T00:54:10;98467.22;;;8.22;100.00
10618;BME280;5356;43.526;26.534;2023-01-10T00:56:36;98459.25;;;8.22;100.00
10618;BME280;5356;43.526;26.534;2023-01-10T00:59:02;98460.88;;;8.23;100.00
10618;BME280;5356;43.526;26.534;2023-01-10T01:01:28;98468.03;;;8.22;100.00
10618;BME280;5356;43.526;26.534;2023-01-10T01:03:53;98462.06;;;8.27;100.00
10618;BME280;5356;43.526;26.534;2023-01-10T01:06:19;98453.72;;;8.23;100.00
10618;BME280;5356;43.526;26.534;2023-01-10T01:08:44;98453.50;;;8.25;100.00
10618;BME280;5356;43.526;26.534;2023-01-10T01:11:10;98449.59;;;8.27;100.00
10618;BME280;5356;43.526;26.534;2023-01-10T01:13:35;98445.31;;;8.26;100.00
10618;BME280;5356;43.526;26.534;2023-01-10T01:16:01;98438.25;;;8.39;100.00
10618;BME280;5356;43.526;26.534;2023-01-10T01:18:26;98440.91;;;8.39;100.00
10618;BME280;5356;43.526;26.534;2023-01-10T01:20:53;98445.19;;;8.40;100.00
10618;BME280;5356;43.526;26.534;2023-01-10T01:23:21;98450.38;;;8.46;100.00
10618;BME280;5356;43.526;26.534;2023-01-10T01:25:53;98445.91;;;8.47;100.00
10618;BME280;5356;43.526;26.534;2023-01-10T01:28:19;98440.06;;;8.57;100.00
10618;BME280;5356;43.526;26.534;2023-01-10T01:30:45;98433.38;;;8.66;100.00
10618;BME280;5356;43.526;26.534;2023-01-10T01:33:11;98444.59;;;8.68;100.00
10618;BME280;5356;43.526;26.534;2023-01-10T01:35:41;98443.13;;;8.72;100.00
10618;BME280;5356;43.526;26.534;2023-01-10T01:38:06;98438.16;;;8.75;100.00
10618;BME280;5356;43.526;26.534;2023-01-10T01:40:32;98449.16;;;8.79;100.00
10618;BME280;5356;43.526;26.534;2023-01-10T01:42:57;98445.44;;;8.80;100.00
10618;BME280;5356;43.526;26.534;2023-01-10T01:50:21;98441.06;;;8.86;100.00
10618;BME280;5356;43.526;26.534;2023-01-10T01:52:52;98443.41;;;8.94;100.00
10618;BME280;5356;43.526;26.534;2023-01-10T01:55:20;98442.75;;;8.98;100.00
10618;BME280;5356;43.526;26.534;2023-01-10T01:57:47;98432.00;;;9.05;100.00
10618;BME280;5356;43.526;26.534;2023-01-10T02:00:14;98438.63;;;9.14;100.00
10618;BME280;5356;43.526;26.534;2023-01-10T02:02:47;98429.72;;;9.20;100.00
10618;BME280;5356;43.526;26.534;2023-01-10T02:05:15;98425.56;;;9.13;100.00
10618;BME280;5356;43.526;26.534;2023-01-10T02:07:44;98417.31;;;9.03;100.00
10618;BME280;5356;43.526;26.534;2023-01-10T02:10:38;98419.91;;;9.09;100.00
10618;BME280;5356;43.526;26.534;2023-01-10T02:13:07;98425.91;;;9.16;100.00
10618;BME280;5356;43.526;26.534;2023-01-10T02:15:33;98419.56;;;9.17;100.00
10618;BME280;5356;43.526;26.534;2023-01-10T02:18:00;98418.16;;;9.15;100.00
10618;BME280;5356;43.526;26.534;2023-01-10T02:20:30;98412.97;;;9.20;100.00
10618;BME280;5356;43.526;26.534;2023-01-10T02:28:59;98424.88;;;9.29;100.00
10618;BME280;5356;43.526;26.534;2023-01-10T02:34:27;98412.16;;;9.31;100.00
10618;BME280;5356;43.526;26.534;2023-01-10T02:39:48;98423.50;;;9.38;100.00
10618;BME280;5356;43.526;26.534;2023-01-10T02:42:28;98423.75;;;9.49;100.00
10618;BME280;5356;43.526;26.534;2023-01-10T02:47:40;98421.75;;;9.56;100.00
10618;BME280;5356;43.526;26.534;2023-01-10T02:52:52;98417.59;;;9.48;100.00
10618;BME280;5356;43.526;26.534;2023-01-10T02:55:20;98413.78;;;9.44;100.00
10618;BME280;5356;43.526;26.534;2023-01-10T03:00:22;98409.28;;;9.44;100.00
10618;BME280;5356;43.526;26.534;2023-01-10T03:03:29;98403.16;;;9.44;100.00
10618;BME280;5356;43.526;26.534;2023-01-10T03:06:10;98395.41;;;9.42;100.00
10618;BME280;5356;43.526;26.534;2023-01-10T03:08:51;98390.09;;;9.42;100.00
10618;BME280;5356;43.526;26.534;2023-01-10T03:11:20;98397.84;;;9.44;100.00
10618;BME280;5356;43.526;26.534;2023-01-10T03:14:07;98397.63;;;9.46;100.00
10618;BME280;5356;43.526;26.534;2023-01-10T03:16:36;98394.84;;;9.40;100.00
10618;BME280;5356;43.526;26.534;2023-01-10T03:19:09;98393.22;;;9.51;100.00
10618;BME280;5356;43.526;26.534;2023-01-10T03:21:38;98392.63;;;9.61;100.00
10618;BME280;5356;43.526;26.534;2023-01-10T03:24:09;98388.00;;;9.56;100.00
10618;BME280;5356;43.526;26.534;2023-01-10T03:26:59;98381.41;;;9.59;100.00
10618;BME280;5356;43.526;26.534;2023-01-10T03:29:35;98384.44;;;9.62;100.00
10618;BME280;5356;43.526;26.534;2023-01-10T03:32:06;98373.66;;;9.69;100.00
10618;BME280;5356;43.526;26.534;2023-01-10T03:34:34;98366.16;;;9.66;100.00
10618;BME280;5356;43.526;26.534;2023-01-10T03:37:28;98372.03;;;9.68;100.00
10618;BME280;5356;43.526;26.534;2023-01-10T03:40:19;98367.72;;;9.79;100.00
10618;BME280;5356;43.526;26.534;2023-01-10T03:43:00;98356.63;;;9.82;100.00
10618;BME280;5356;43.526;26.534;2023-01-10T03:46:10;98362.16;;;9.92;100.00
10618;BME280;5356;43.526;26.534;2023-01-10T03:48:40;98361.53;;;10.02;100.00
10618;BME280;5356;43.526;26.534;2023-01-10T03:51:08;98353.81;;;10.00;100.00
10618;BME280;5356;43.526;26.534;2023-01-10T03:53:37;98348.16;;;9.97;100.00
10618;BME280;5356;43.526;26.534;2023-01-10T03:56:03;98341.56;;;9.99;100.00
10618;BME280;5356;43.526;26.534;2023-01-10T03:58:29;98332.53;;;10.00;100.00
10618;BME280;5356;43.526;26.534;2023-01-10T04:00:55;98329.38;;;10.03;100.00
10618;BME280;5356;43.526;26.534;2023-01-10T04:03:20;98328.81;;;10.01;100.00
10618;BME280;5356;43.526;26.534;2023-01-10T04:05:46;98338.97;;;10.04;100.00
10618;BME280;5356;43.526;26.534;2023-01-10T04:08:11;98337.69;;;10.07;100.00
10618;BME280;5356;43.526;26.534;2023-01-10T04:10:37;98336.25;;;10.16;100.00
10618;BME280;5356;43.526;26.534;2023-01-10T04:13:03;98339.50;;;10.18;100.00
10618;BME280;5356;43.526;26.534;2023-01-10T04:15:29;98335.47;;;10.16;100.00
10618;BME280;5356;43.526;26.534;2023-01-10T04:17:54;98336.03;;;10.18;100.00
10618;BME280;5356;43.526;26.534;2023-01-10T04:20:21;98332.69;;;10.10;100.00
10618;BME280;5356;43.526;26.534;2023-01-10T04:22:46;98333.84;;;10.15;100.00
10618;BME280;5356;43.526;26.534;2023-01-10T04:25:14;98336.03;;;10.18;100.00
10618;BME280;5356;43.526;26.534;2023-01-10T04:27:40;98333.28;;;10.12;100.00
10618;BME280;5356;43.526;26.534;2023-01-10T04:30:06;98320.78;;;10.13;100.00
10618;BME280;5356;43.526;26.534;2023-01-10T04:32:32;98323.84;;;10.05;100.00
10618;BME280;5356;43.526;26.534;2023-01-10T04:34:57;98334.94;;;10.02;100.00
10618;BME280;5356;43.526;26.534;2023-01-10T04:37:23;98328.25;;;9.99;100.00
10618;BME280;5356;43.526;26.534;2023-01-10T04:39:48;98333.06;;;10.14;100.00
10618;BME280;5356;43.526;26.534;2023-01-10T04:42:15;98338.09;;;10.27;100.00
10618;BME280;5356;43.526;26.534;2023-01-10T04:44:41;98334.03;;;10.37;100.00
10618;BME280;5356;43.526;26.534;2023-01-10T04:47:06;98339.34;;;10.37;100.00
10618;BME280;5356;43.526;26.534;2023-01-10T04:49:32;98342.25;;;10.35;100.00
10618;BME280;5356;43.526;26.534;2023-01-10T04:51:57;98338.06;;;10.39;100.00
10618;BME280;5356;43.526;26.534;2023-01-10T04:54:23;98332.81;;;10.44;100.00
10618;BME280;5356;43.526;26.534;2023-01-10T04:56:48;98340.25;;;10.42;100.00
10618;BME280;5356;43.526;26.534;2023-01-10T04:59:14;98335.72;;;10.43;100.00
10618;BME280;5356;43.526;26.534;2023-01-10T05:01:40;98342.91;;;10.42;100.00
10618;BME280;5356;43.526;26.534;2023-01-10T05:04:05;98345.72;;;10.36;100.00
10618;BME280;5356;43.526;26.534;2023-01-10T05:06:32;98344.44;;;10.38;100.00
10618;BME280;5356;43.526;26.534;2023-01-10T05:08:57;98351.03;;;10.36;100.00
10618;BME280;5356;43.526;26.534;2023-01-10T05:11:23;98344.91;;;10.35;100.00
10618;BME280;5356;43.526;26.534;2023-01-10T05:13:49;98344.91;;;10.35;100.00
10618;BME280;5356;43.526;26.534;2023-01-10T05:16:15;98342.50;;;10.33;100.00
10618;BME280;5356;43.526;26.534;2023-01-10T05:18:41;98333.13;;;10.31;100.00
10618;BME280;5356;43.526;26.534;2023-01-10T05:21:09;98330.56;;;10.36;100.00
10618;BME280;5356;43.526;26.534;2023-01-10T05:23:35;98323.94;;;10.39;100.00
10618;BME280;5356;43.526;26.534;2023-01-10T05:26:06;98331.69;;;10.40;100.00
10618;BME280;5356;43.526;26.534;2023-01-10T05:28:32;98334.34;;;10.40;100.00
10618;BME280;5356;43.526;26.534;2023-01-10T05:30:58;98340.81;;;10.44;100.00
10618;BME280;5356;43.526;26.534;2023-01-10T05:33:23;98333.38;;;10.46;100.00
10618;BME280;5356;43.526;26.534;2023-01-10T05:35:48;98335.09;;;10.52;100.00
10618;BME280;5356;43.526;26.534;2023-01-10T05:38:14;98327.03;;;10.47;100.00
10618;BME280;5356;43.526;26.534;2023-01-10T05:40:39;98318.09;;;10.53;100.00
10618;BME280;5356;43.526;26.534;2023-01-10T05:43:05;98330.81;;;10.51;100.00
10618;BME280;5356;43.526;26.534;2023-01-10T05:45:30;98339.94;;;10.55;100.00
10618;BME280;5356;43.526;26.534;2023-01-10T05:47:56;98341.69;;;10.50;100.00
10618;BME280;5356;43.526;26.534;2023-01-10T05:50:21;98335.44;;;10.56;100.00
10618;BME280;5356;43.526;26.534;2023-01-10T05:52:47;98336.78;;;10.59;100.00
10618;BME280;5356;43.526;26.534;2023-01-10T05:55:12;98333.09;;;10.60;100.00
10618;BME280;5356;43.526;26.534;2023-01-10T05:57:38;98329.94;;;10.63;100.00
10618;BME280;5356;43.526;26.534;2023-01-10T06:00:04;98322.59;;;10.70;100.00
10618;BME280;5356;43.526;26.534;2023-01-10T06:02:31;98317.19;;;10.65;100.00
10618;BME280;5356;43.526;26.534;2023-01-10T06:04:56;98313.25;;;10.67;100.00
10618;BME280;5356;43.526;26.534;2023-01-10T06:07:22;98313.16;;;10.62;100.00
10618;BME280;5356;43.526;26.534;2023-01-10T06:09:47;98316.31;;;10.59;100.00
10618;BME280;5356;43.526;26.534;2023-01-10T06:12:15;98329.84;;;10.57;100.00
10618;BME280;5356;43.526;26.534;2023-01-10T06:14:43;98330.44;;;10.60;100.00
10618;BME280;5356;43.526;26.534;2023-01-10T06:17:08;98332.34;;;10.64;100.00
10618;BME280;5356;43.526;26.534;2023-01-10T06:19:35;98341.22;;;10.70;100.00
10618;BME280;5356;43.526;26.534;2023-01-10T06:22:01;98344.78;;;10.75;100.00
10618;BME280;5356;43.526;26.534;2023-01-10T06:24:27;98353.34;;;10.77;100.00
10618;BME280;5356;43.526;26.534;2023-01-10T06:26:53;98368.06;;;10.80;100.00
10618;BME280;5356;43.526;26.534;2023-01-10T06:29:19;98363.88;;;10.84;100.00
10618;BME280;5356;43.526;26.534;2023-01-10T06:31:44;98354.50;;;10.82;100.00
10618;BME280;5356;43.526;26.534;2023-01-10T06:34:10;98359.91;;;10.87;100.00
10618;BME280;5356;43.526;26.534;2023-01-10T06:36:36;98357.09;;;10.93;100.00
10618;BME280;5356;43.526;26.534;2023-01-10T06:39:01;98359.97;;;10.92;100.00
10618;BME280;5356;43.526;26.534;2023-01-10T06:41:27;98364.69;;;11.01;100.00
10618;BME280;5356;43.526;26.534;2023-01-10T06:43:53;98363.78;;;11.13;100.00
10618;BME280;5356;43.526;26.534;2023-01-10T06:46:19;98374.50;;;11.18;100.00
10618;BME280;5356;43.526;26.534;2023-01-10T06:48:46;98370.72;;;11.14;100.00
10618;BME280;5356;43.526;26.534;2023-01-10T06:51:13;98359.50;;;11.12;100.00
10618;BME280;5356;43.526;26.534;2023-01-10T06:53:39;98366.28;;;11.19;100.00
10618;BME280;5356;43.526;26.534;2023-01-10T06:56:05;98363.63;;;11.19;100.00
10618;BME280;5356;43.526;26.534;2023-01-10T06:58:31;98373.56;;;11.24;100.00
10618;BME280;5356;43.526;26.534;2023-01-10T07:00:57;98374.34;;;11.24;100.00
10618;BME280;5356;43.526;26.534;2023-01-10T07:03:23;98369.41;;;11.33;100.00
10618;BME280;5356;43.526;26.534;2023-01-10T07:05:48;98362.72;;;11.31;100.00
10618;BME280;5356;43.526;26.534;2023-01-10T07:08:14;98367.22;;;11.47;100.00
10618;BME280;5356;43.526;26.534;2023-01-10T07:10:41;98368.97;;;11.58;100.00
10618;BME280;5356;43.526;26.534;2023-01-10T07:13:06;98366.69;;;11.67;100.00
10618;BME280;5356;43.526;26.534;2023-01-10T07:15:32;98367.78;;;11.71;100.00
10618;BME280;5356;43.526;26.534;2023-01-10T07:17:58;98376.97;;;11.80;100.00
10618;BME280;5356;43.526;26.534;2023-01-10T07:20:24;98381.84;;;11.83;100.00
10618;BME280;5356;43.526;26.534;2023-01-10T07:22:53;98387.53;;;11.87;100.00
10618;BME280;5356;43.526;26.534;2023-01-10T07:25:20;98382.47;;;11.90;100.00
10618;BME280;5356;43.526;26.534;2023-01-10T07:27:46;98385.22;;;11.96;100.00
10618;BME280;5356;43.526;26.534;2023-01-10T07:30:11;98379.69;;;12.02;100.00
10618;BME280;5356;43.526;26.534;2023-01-10T07:32:37;98379.25;;;12.10;100.00
10618;BME280;5356;43.526;26.534;2023-01-10T07:35:02;98374.91;;;12.26;100.00
10618;BME280;5356;43.526;26.534;2023-01-10T07:37:28;98380.09;;;12.38;100.00
10618;BME280;5356;43.526;26.534;2023-01-10T07:39:53;98369.56;;;12.53;100.00
10618;BME280;5356;43.526;26.534;2023-01-10T07:42:19;98374.38;;;12.51;100.00
10618;BME280;5356;43.526;26.534;2023-01-10T07:44:44;98375.13;;;12.47;100.00
10618;BME280;5356;43.526;26.534;2023-01-10T07:47:10;98388.03;;;12.55;100.00
10618;BME280;5356;43.526;26.534;2023-01-10T07:49:35;98394.78;;;12.63;100.00
10618;BME280;5356;43.526;26.534;2023-01-10T07:52:01;98390.63;;;12.77;100.00
10618;BME280;5356;43.526;26.534;2023-01-10T07:54:26;98385.66;;;12.91;100.00
10618;BME280;5356;43.526;26.534;2023-01-10T07:56:52;98378.81;;;13.00;100.00
10618;BME280;5356;43.526;26.534;2023-01-10T07:59:17;98379.22;;;12.87;100.00
10618;BME280;5356;43.526;26.534;2023-01-10T08:01:43;98389.50;;;13.00;100.00
10618;BME280;5356;43.526;26.534;2023-01-10T08:04:08;98388.44;;;13.01;100.00
10618;BME280;5356;43.526;26.534;2023-01-10T08:06:34;98379.34;;;13.02;100.00
10618;BME280;5356;43.526;26.534;2023-01-10T08:08:59;98371.91;;;13.09;100.00
10618;BME280;5356;43.526;26.534;2023-01-10T08:11:28;98368.63;;;13.02;100.00
10618;BME280;5356;43.526;26.534;2023-01-10T08:13:53;98379.13;;;13.09;100.00
10618;BME280;5356;43.526;26.534;2023-01-10T08:16:19;98387.72;;;13.16;100.00
10618;BME280;5356;43.526;26.534;2023-01-10T08:18:45;98393.34;;;13.14;100.00
10618;BME280;5356;43.526;26.534;2023-01-10T08:21:10;98390.72;;;13.19;100.00
10618;BME280;5356;43.526;26.534;2023-01-10T08:23:36;98390.16;;;13.17;100.00
10618;BME280;5356;43.526;26.534;2023-01-10T08:26:02;98399.34;;;13.27;100.00
10618;BME280;5356;43.526;26.534;2023-01-10T08:28:27;98405.50;;;13.27;100.00
10618;BME280;5356;43.526;26.534;2023-01-10T08:30:53;98397.13;;;13.18;100.00
10618;BME280;5356;43.526;26.534;2023-01-10T08:33:23;98393.19;;;13.26;100.00
10618;BME280;5356;43.526;26.534;2023-01-10T08:35:49;98392.81;;;13.12;100.00
10618;BME280;5356;43.526;26.534;2023-01-10T08:38:15;98406.25;;;13.22;100.00
10618;BME280;5356;43.526;26.534;2023-01-10T08:40:40;98396.44;;;13.28;100.00
10618;BME280;5356;43.526;26.534;2023-01-10T08:43:09;98398.03;;;13.29;100.00
10618;BME280;5356;43.526;26.534;2023-01-10T08:45:36;98400.16;;;13.27;100.00
10618;BME280;5356;43.526;26.534;2023-01-10T08:48:03;98404.19;;;13.30;100.00
10618;BME280;5356;43.526;26.534;2023-01-10T08:50:29;98397.25;;;13.29;100.00
10618;BME280;5356;43.526;26.534;2023-01-10T08:52:59;98400.47;;;13.31;100.00
10618;BME280;5356;43.526;26.534;2023-01-10T08:55:25;98396.44;;;13.28;100.00
10618;BME280;5356;43.526;26.534;2023-01-10T08:57:51;98399.13;;;13.33;100.00
10618;BME280;5356;43.526;26.534;2023-01-10T09:00:17;98402.59;;;13.29;100.00
10618;BME280;5356;43.526;26.534;2023-01-10T09:02:43;98399.91;;;13.29;100.00
10618;BME280;5356;43.526;26.534;2023-01-10T09:05:09;98394.84;;;13.32;100.00
10618;BME280;5356;43.526;26.534;2023-01-10T09:07:35;98394.09;;;13.37;100.00
10618;BME280;5356;43.526;26.534;2023-01-10T09:10:01;98390.84;;;13.35;100.00
10618;BME280;5356;43.526;26.534;2023-01-10T09:12:27;98382.28;;;13.33;100.00
10618;BME280;5356;43.526;26.534;2023-01-10T09:15:11;98378.03;;;13.37;100.00
10618;BME280;5356;43.526;26.534;2023-01-10T09:17:36;98365.38;;;13.27;100.00
10618;BME280;5356;43.526;26.534;2023-01-10T09:20:02;98362.19;;;13.30;100.00
10618;BME280;5356;43.526;26.534;2023-01-10T09:22:37;98353.41;;;13.35;100.00
10618;BME280;5356;43.526;26.534;2023-01-10T09:25:04;98337.34;;;13.35;100.00
10618;BME280;5356;43.526;26.534;2023-01-10T09:27:29;98339.72;;;13.26;100.00
10618;BME280;5356;43.526;26.534;2023-01-10T09:29:54;98348.47;;;13.21;100.00
10618;BME280;5356;43.526;26.534;2023-01-10T09:32:20;98347.78;;;13.31;100.00
10618;BME280;5356;43.526;26.534;2023-01-10T09:34:45;98343.28;;;13.42;100.00
10618;BME280;5356;43.526;26.534;2023-01-10T09:37:11;98341.38;;;13.37;100.00
10618;BME280;5356;43.526;26.534;2023-01-10T09:39:36;98335.44;;;13.30;100.00
10618;BME280;5356;43.526;26.534;2023-01-10T09:44:50;98309.72;;;13.24;100.00
10618;BME280;5356;43.526;26.534;2023-01-10T09:52:55;98304.22;;;13.03;100.00
10618;BME280;5356;43.526;26.534;2023-01-10T09:55:29;98301.81;;;13.02;100.00
10618;BME280;5356;43.526;26.534;2023-01-10T09:57:59;98299.56;;;12.84;100.00
10618;BME280;5356;43.526;26.534;2023-01-10T10:00:38;98313.94;;;12.77;100.00
10618;BME280;5356;43.526;26.534;2023-01-10T10:05:55;98306.97;;;12.76;100.00
10618;BME280;5356;43.526;26.534;2023-01-10T10:08:21;98317.16;;;12.79;100.00
10618;BME280;5356;43.526;26.534;2023-01-10T10:10:54;98318.03;;;12.85;100.00
10618;BME280;5356;43.526;26.534;2023-01-10T10:19:18;98301.47;;;12.88;100.00
10618;BME280;5356;43.526;26.534;2023-01-10T10:35:14;98264.22;;;12.76;100.00
10618;BME280;5356;43.526;26.534;2023-01-10T10:37:49;98254.66;;;12.86;100.00
10618;BME280;5356;43.526;26.534;2023-01-10T10:40:21;98258.19;;;12.91;100.00
10618;BME280;5356;43.526;26.534;2023-01-10T10:42:48;98247.13;;;12.77;100.00
10618;BME280;5356;43.526;26.534;2023-01-10T10:45:35;98235.91;;;12.80;100.00
10618;BME280;5356;43.526;26.534;2023-01-10T10:48:15;98243.94;;;12.80;100.00
10618;BME280;5356;43.526;26.534;2023-01-10T10:50:50;98239.94;;;12.83;100.00
10618;BME280;5356;43.526;26.534;2023-01-10T10:53:19;98244.53;;;12.93;100.00
10618;BME280;5356;43.526;26.534;2023-01-10T10:55:45;98236.25;;;12.89;100.00
10618;BME280;5356;43.526;26.534;2023-01-10T10:58:12;98245.34;;;12.88;100.00
10618;BME280;5356;43.526;26.534;2023-01-10T11:00:39;98235.13;;;12.80;100.00
10618;BME280;5356;43.526;26.534;2023-01-10T11:03:38;98227.34;;;12.78;100.00
10618;BME280;5356;43.526;26.534;2023-01-10T11:06:06;98223.03;;;12.72;100.00
10618;BME280;5356;43.526;26.534;2023-01-10T11:08:35;98218.78;;;12.76;100.00
10618;BME280;5356;43.526;26.534;2023-01-10T11:12:10;98222.28;;;12.77;100.00
10618;BME280;5356;43.526;26.534;2023-01-10T11:14:06;98218.28;;;12.85;100.00
10618;BME280;5356;43.526;26.534;2023-01-10T11:16:36;98215.09;;;12.88;100.00
10618;BME280;5356;43.526;26.534;2023-01-10T11:19:22;98214.09;;;12.94;100.00
10618;BME280;5356;43.526;26.534;2023-01-10T11:22:01;98222.63;;;12.96;100.00
10618;BME280;5356;43.526;26.534;2023-01-10T11:24:31;98211.16;;;12.95;100.00
10618;BME280;5356;43.526;26.534;2023-01-10T11:27:22;98206.59;;;12.96;100.00
10618;BME280;5356;43.526;26.534;2023-01-10T11:29:59;98194.06;;;13.01;100.00
10618;BME280;5356;43.526;26.534;2023-01-10T11:32:36;98205.28;;;12.98;100.00
10618;BME280;5356;43.526;26.534;2023-01-10T11:35:16;98190.88;;;13.04;100.00
10618;BME280;5356;43.526;26.534;2023-01-10T11:37:57;98195.09;;;12.95;100.00
10618;BME280;5356;43.526;26.534;2023-01-10T11:40:26;98180.19;;;12.99;100.00
10618;BME280;5356;43.526;26.534;2023-01-10T11:42:57;98170.28;;;13.00;100.00
10618;BME280;5356;43.526;26.534;2023-01-10T11:50:29;98172.41;;;12.98;100.00
10618;BME280;5356;43.526;26.534;2023-01-10T11:52:57;98171.59;;;12.97;100.00
10618;BME280;5356;43.526;26.534;2023-01-10T11:55:25;98168.69;;;13.04;100.00
10618;BME280;5356;43.526;26.534;2023-01-10T12:00:30;98160.91;;;12.97;100.00
10618;BME280;5356;43.526;26.534;2023-01-10T12:02:56;98152.06;;;12.92;100.00
10618;BME280;5356;43.526;26.534;2023-01-10T12:05:22;98152.38;;;13.00;100.00
10618;BME280;5356;43.526;26.534;2023-01-10T12:07:59;98155.03;;;13.00;100.00
10618;BME280;5356;43.526;26.534;2023-01-10T12:10:27;98162.03;;;13.12;100.00
10618;BME280;5356;43.526;26.534;2023-01-10T12:12:58;98156.97;;;13.15;100.00
10618;BME280;5356;43.526;26.534;2023-01-10T12:17:50;98155.13;;;13.21;100.00
10618;BME280;5356;43.526;26.534;2023-01-10T12:20:15;98151.63;;;13.15;100.00
10618;BME280;5356;43.526;26.534;2023-01-10T12:22:44;98162.06;;;13.17;100.00
10618;BME280;5356;43.526;26.534;2023-01-10T12:25:23;98162.31;;;13.15;100.00
10618;BME280;5356;43.526;26.534;2023-01-10T12:27:53;98142.53;;;13.21;100.00
10618;BME280;5356;43.526;26.534;2023-01-10T12:30:39;98144.47;;;13.26;100.00
10618;BME280;5356;43.526;26.534;2023-01-10T12:33:37;98141.50;;;13.22;100.00
10618;BME280;5356;43.526;26.534;2023-01-10T12:39:09;98143.06;;;13.18;100.00
10618;BME280;5356;43.526;26.534;2023-01-10T12:41:57;98140.66;;;13.17;100.00
10618;BME280;5356;43.526;26.534;2023-01-10T12:44:48;98118.47;;;13.21;100.00
10618;BME280;5356;43.526;26.534;2023-01-10T12:47:30;98121.97;;;13.22;100.00
10618;BME280;5356;43.526;26.534;2023-01-10T12:50:20;98117.41;;;13.17;100.00
10618;BME280;5356;43.526;26.534;2023-01-10T12:55:24;98103.75;;;13.19;100.00
10618;BME280;5356;43.526;26.534;2023-01-10T12:57:54;98101.63;;;13.11;100.00
10618;BME280;5356;43.526;26.534;2023-01-10T13:00:23;98098.63;;;13.02;100.00
10618;BME280;5356;43.526;26.534;2023-01-10T13:02:54;98087.94;;;13.07;100.00
10618;BME280;5356;43.526;26.534;2023-01-10T13:05:26;98113.38;;;13.10;100.00
10618;BME280;5356;43.526;26.534;2023-01-10T13:07:57;98108.28;;;13.03;100.00
10618;BME280;5356;43.526;26.534;2023-01-10T13:10:24;98096.19;;;12.90;100.00
10618;BME280;5356;43.526;26.534;2023-01-10T13:13:15;98109.00;;;12.93;100.00
10618;BME280;5356;43.526;26.534;2023-01-10T13:15:51;98092.69;;;12.85;100.00
10618;BME280;5356;43.526;26.534;2023-01-10T13:18:24;98101.50;;;12.80;100.00
10618;BME280;5356;43.526;26.534;2023-01-10T13:21:06;98103.88;;;12.71;100.00
10618;BME280;5356;43.526;26.534;2023-01-10T13:23:38;98100.59;;;12.64;100.00
10618;BME280;5356;43.526;26.534;2023-01-10T13:26:06;98108.53;;;12.44;100.00
10618;BME280;5356;43.526;26.534;2023-01-10T13:28:38;98114.91;;;12.38;100.00
10618;BME280;5356;43.526;26.534;2023-01-10T13:31:07;98104.19;;;12.32;100.00
10618;BME280;5356;43.526;26.534;2023-01-10T13:36:17;98103.31;;;12.22;100.00
10618;BME280;5356;43.526;26.534;2023-01-10T13:41:12;98100.50;;;12.01;100.00
10618;BME280;5356;43.526;26.534;2023-01-10T13:44:10;98104.47;;;11.99;100.00
10618;BME280;5356;43.526;26.534;2023-01-10T13:49:20;98100.41;;;11.91;100.00
10618;BME280;5356;43.526;26.534;2023-01-10T13:54:56;98092.53;;;11.79;100.00
10618;BME280;5356;43.526;26.534;2023-01-10T13:57:48;98102.03;;;11.65;100.00
10618;BME280;5356;43.526;26.534;2023-01-10T14:00:21;98095.16;;;11.74;100.00
10618;BME280;5356;43.526;26.534;2023-01-10T14:03:05;98090.03;;;11.67;100.00
10618;BME280;5356;43.526;26.534;2023-01-10T14:05:31;98092.31;;;11.54;100.00
10618;BME280;5356;43.526;26.534;2023-01-10T14:07:56;98071.03;;;11.59;100.00
10618;BME280;5356;43.526;26.534;2023-01-10T14:10:27;98067.81;;;11.57;100.00
10618;BME280;5356;43.526;26.534;2023-01-10T14:12:57;98066.72;;;11.53;100.00
10618;BME280;5356;43.526;26.534;2023-01-10T14:15:36;98048.97;;;11.36;100.00
10618;BME280;5356;43.526;26.534;2023-01-10T14:18:06;98038.53;;;11.35;100.00
10618;BME280;5356;43.526;26.534;2023-01-10T14:20:40;98037.69;;;11.29;100.00
10618;BME280;5356;43.526;26.534;2023-01-10T14:25:41;98044.59;;;11.25;100.00
10618;BME280;5356;43.526;26.534;2023-01-10T14:28:21;98035.97;;;11.18;100.00
10618;BME280;5356;43.526;26.534;2023-01-10T14:31:00;98039.47;;;11.18;100.00